M I D A S
Marine Information and Data Acquisition System
Tripno 484 of the Zeeleeuw from 2003-05-05 06:53:56 to 2003-05-05 15:13:46
Back to CruiseResearch ActivitiesStationsMapUnderway DataData graphs

EquipmentUnitsComment
TimeDGPSUTC
LatitudeDGPSDM.mWGS84
LongitudeDGPSDM.mWGS84
TemperatureSBE03/SBE38deg celciusITS90
ConductivitySBE21S/mITS90
SalinitySBE21 Practical Salinity Units
ChlorophylAChelsea fluorimeterg/lCalibrated in Aceton
Missing or incorrect values are displayed as -999
Sea surface data collected by the RV Zeeleeuw from 2003-05-05 06:53:56 to 2003-05-05 15:13:46
Time Latitude Longitude Temperature Conductivity Salinity ChlorophylA
2003-05-05 06:54:58 51°13.6 2°56.1 12.196285 3.649284 31.238467 16.275708
2003-05-05 06:56:02 51°13.61 2°56.05 12.250471 3.658663 31.330993 15.298136
2003-05-05 06:57:04 51°13.64 2°55.94 12.394902 3.533485 30.050876 25.17499
2003-05-05 06:58:04 51°13.67 2°55.82 12.332595 3.487761 29.560602 20.69164
2003-05-05 06:59:02 51°13.68 2°55.76 12.382599 3.561299 30.292735 19.141007
2003-05-05 06:59:58 51°13.7 2°55.76 12.514555 3.50251 29.685725 21.466956
2003-05-05 07:00:58 51°13.74 2°55.73 12.550797 3.421183 28.850474 22.444529
2003-05-05 07:01:58 51°13.81 2°55.65 12.654359 3.260776 27.254451 24.096289
2003-05-05 07:02:58 51°13.9 2°55.57 12.567354 3.33913 28.010749 22.91646
2003-05-05 07:03:58 51°14.01 2°55.49 12.478474 3.384105 28.457667 22.006306
2003-05-05 07:04:58 51°14.14 2°55.4 13.455755 3.554028 30.144997 22.680494
2003-05-05 07:06:00 51°14.27 2°55.25 12.419094 3.641063 31.020135 21.702922
2003-05-05 07:06:58 51°14.37 2°55.06 12.57606 3.566777 30.259411 21.197281
2003-05-05 07:07:58 51°14.52 2°54.87 12.32105 3.554765 30.111928 22.646785
2003-05-05 07:08:58 51°14.7 2°54.71 12.166566 3.803469 32.65418 22.815332
2003-05-05 07:09:58 51°14.87 2°54.55 13.431179 3.875885 33.43913 15.432973
2003-05-05 07:10:58 51°15.05 2°54.4 13.898091 3.88959 33.628081 11.960905
2003-05-05 07:11:58 51°15.23 2°54.24 13.359091 3.888115 33.663381 10.882204
2003-05-05 07:12:58 51°15.42 2°54.08 13.595737 3.891911 33.786797 8.556255
2003-05-05 07:13:58 51°15.61 2°53.91 13.138648 3.887695 33.813815 6.533691
2003-05-05 07:14:58 51°15.79 2°53.75 13.362212 3.887064 33.911755 4.848221
2003-05-05 07:15:58 51°15.98 2°53.58 11.830062 3.885271 33.85766 5.4887
2003-05-05 07:16:58 51°16.18 2°53.41 11.849582 3.885376 33.82282 6.297725
2003-05-05 07:17:58 51°16.37 2°53.24 13.261931 3.886536 33.814019 8.758512
2003-05-05 07:18:58 51°16.57 2°53.07 13.355302 3.885376 33.812793 6.668529
2003-05-05 07:19:58 51°16.77 2°52.9 13.027101 3.881477 33.84017 5.084187
2003-05-05 07:20:58 51°16.96 2°52.74 12.941255 3.877366 33.853383 4.207742
2003-05-05 07:21:58 51°17.16 2°52.57 13.229825 3.873994 33.871683 4.477418
2003-05-05 07:22:58 51°17.36 2°52.4 13.179738 3.874732 33.904871 3.297589
2003-05-05 07:23:58 51°17.58 2°52.32 13.170977 3.871149 33.94662 5.252734
2003-05-05 07:24:58 51°17.79 2°52.28 12.861316 3.858817 33.934148 4.207742
2003-05-05 07:25:58 51°18 2°52.33 12.79886 3.855656 33.958506 3.971777
2003-05-05 07:26:58 51°18.18 2°52.51 13.081152 3.856183 33.981935 4.645965
2003-05-05 07:27:58 51°18.35 2°52.71 12.334179 3.854497 33.979248 4.679674
2003-05-05 07:28:58 51°18.48 2°52.97 12.136788 3.854181 33.981257 4.645965
2003-05-05 07:29:58 51°18.58 2°53.25 12.494372 3.851546 33.971437 4.679674
2003-05-05 07:30:58 51°18.69 2°53.54 12.945561 3.84754 33.937903 3.398717
2003-05-05 07:31:58 51°18.79 2°53.83 11.892661 3.848805 33.937919 2.758238
2003-05-05 07:32:58 51°18.89 2°54.12 12.023729 3.849332 33.92339 2.690819
2003-05-05 07:33:58 51°18.99 2°54.42 13.003353 3.850491 33.919462 2.724529
2003-05-05 07:34:58 51°19.09 2°54.72 13.070766 3.85281 33.922548 2.791947
2003-05-05 07:35:58 51°19.2 2°55.03 12.805468 3.854285 33.910082 2.926785
2003-05-05 07:36:58 51°19.3 2°55.33 13.272064 3.857763 33.910724 2.994204
2003-05-05 07:37:58 51°19.4 2°55.62 12.319013 3.862822 33.892021 3.19646
2003-05-05 07:38:58 51°19.5 2°55.93 12.977131 3.865773 33.861509 3.432426
2003-05-05 07:39:58 51°19.58 2°56.24 12.632911 3.86651 33.855706 3.398717
2003-05-05 07:40:58 51°19.65 2°56.56 13.153495 3.865351 33.853056 3.365007
2003-05-05 07:41:58 51°19.72 2°56.87 12.847437 3.866932 33.8591 3.365007
2003-05-05 07:42:58 51°19.8 2°57.18 13.022935 3.867248 33.838362 3.533554
2003-05-05 07:43:58 51°19.87 2°57.49 12.85377 3.866931 33.808611 3.365007
2003-05-05 07:44:58 51°19.95 2°57.8 12.813738 3.86788 33.814256 3.331298
2003-05-05 07:45:58 51°20.02 2°58.11 12.751013 3.866088 33.796793 3.567264
2003-05-05 07:46:58 51°20.1 2°58.42 12.954486 3.863663 33.756634 4.005486
2003-05-05 07:47:58 51°20.17 2°58.72 12.867603 3.863241 33.731708 4.275161
2003-05-05 07:48:58 51°20.25 2°59.03 13.250948 3.863557 33.719008 4.578546
2003-05-05 07:49:58 51°20.32 2°59.33 12.750518 3.862714 33.68932 4.848221
2003-05-05 07:50:58 51°20.4 2°59.63 13.879073 3.861764 33.600171 5.421281
2003-05-05 07:51:58 51°20.47 2°59.93 12.864235 3.860708 33.4864 5.724665
2003-05-05 07:52:58 51°20.54 3°0.23 13.077079 3.858705 33.395849 5.825794
2003-05-05 07:53:58 51°20.62 3°0.54 13.462743 3.856068 33.301721 6.331435
2003-05-05 07:54:58 51°20.69 3°0.84 13.370012 3.854803 33.259505 6.499982
2003-05-05 07:55:58 51°20.75 3°1.14 13.58272 3.833721 33.027802 7.949486
2003-05-05 07:56:58 51°20.82 3°1.44 13.432559 3.817066 32.828807 7.915777
2003-05-05 07:57:58 51°20.89 3°1.75 13.960943 3.819489 32.780679 7.949486
2003-05-05 07:58:58 51°20.95 3°2.05 13.44565 3.800939 32.602065 8.994477
2003-05-05 07:59:58 51°21.02 3°2.35 13.152378 3.783547 32.429259 10.376563
2003-05-05 08:00:58 51°21.09 3°2.65 13.898179 3.751929 32.147218 10.5114
2003-05-05 08:01:58 51°21.16 3°2.95 13.155999 3.755618 32.211318 15.567811
2003-05-05 08:02:58 51°21.22 3°3.25 13.181436 3.714939 31.924795 17.556665
2003-05-05 08:03:58 51°21.29 3°3.54 13.323955 3.673839 31.525639 16.073452
2003-05-05 08:04:58 51°21.35 3°3.81 13.805074 3.634322 31.143069 18.197144
2003-05-05 08:05:58 51°21.39 3°4.02 13.353162 3.610192 30.909517 18.331982
2003-05-05 08:06:58 51°21.44 3°4.22 13.508127 3.580478 30.607195 18.230853
2003-05-05 08:07:58 51°21.48 3°4.41 13.18309 3.583533 30.632356 20.455674
2003-05-05 08:08:58 51°21.52 3°4.58 13.401694 3.583428 30.632639 22.478238
2003-05-05 08:09:58 51°21.56 3°4.74 12.270321 3.583744 30.631151 28.680768
2003-05-05 08:10:58 51°21.6 3°4.94 12.493288 3.584165 30.630023 35.591195
2003-05-05 08:11:58 51°21.67 3°5.16 12.453083 3.587221 30.659667 44.524187
2003-05-05 08:12:58 51°21.74 3°5.38 12.477119 3.580161 30.597148 33.63605
2003-05-05 08:13:58 51°21.82 3°5.61 12.360158 3.574788 30.554467 26.995298
2003-05-05 08:14:58 51°21.89 3°5.85 12.318107 3.574472 30.557225 24.669349
2003-05-05 08:15:58 51°21.95 3°6.12 12.387529 3.584903 30.65627 23.085007
2003-05-05 08:16:58 51°22.01 3°6.4 12.528278 3.589012 30.70173 17.893759
2003-05-05 08:17:58 51°22.07 3°6.68 12.48841 3.586168 30.678558 17.489247
2003-05-05 08:18:58 51°22.13 3°6.96 12.171739 3.575947 30.580194 17.691503
2003-05-05 08:19:58 51°22.19 3°7.25 12.167882 3.566569 30.472651 17.758922
2003-05-05 08:20:58 51°22.25 3°7.54 12.174235 3.562987 30.445679 17.3207
2003-05-05 08:21:58 51°22.31 3°7.82 12.196013 3.562039 30.430948 17.624084
2003-05-05 08:22:58 51°22.37 3°8.1 12.179317 3.559088 30.383252 18.702785
2003-05-05 08:23:58 51°22.44 3°8.38 12.183809 3.565094 30.451009 19.242136
2003-05-05 08:24:58 51°22.5 3°8.61 12.176232 3.568571 30.486538 20.017452
2003-05-05 08:25:58 51°22.54 3°8.78 12.183401 3.56815 30.488283 19.680358
2003-05-05 08:26:58 51°22.58 3°8.92 12.178319 3.568571 30.48271 21.028734
2003-05-05 08:27:58 51°22.61 3°9.06 12.13865 3.575315 30.566507 17.388118
2003-05-05 08:28:58 51°22.64 3°9.19 12.171921 3.582058 30.650435 16.916187
2003-05-05 08:29:58 51°22.67 3°9.32 12.182811 3.55951 30.395512 17.994888
2003-05-05 08:30:58 51°22.69 3°9.43 12.179181 3.565726 30.460829 17.455537
2003-05-05 08:31:58 51°22.7 3°9.45 12.169062 3.569625 30.502917 16.74764
2003-05-05 08:32:58 51°22.72 3°9.45 12.150408 3.578897 30.599238 15.770067
2003-05-05 08:33:58 51°22.74 3°9.44 12.145051 3.581215 30.632154 15.668939
2003-05-05 08:34:58 51°22.76 3°9.44 12.123756 3.582269 30.646015 15.63523
2003-05-05 08:35:58 51°22.77 3°9.44 12.12362 3.587221 30.709801 15.230717
2003-05-05 08:36:58 51°22.78 3°9.45 12.129977 3.585641 30.69027 14.859913
2003-05-05 08:37:58 51°22.78 3°9.46 12.130976 3.585536 30.686695 14.691366
2003-05-05 08:38:58 51°22.77 3°9.47 12.13647 3.585957 30.686842 14.657657
2003-05-05 08:39:58 51°22.76 3°9.47 12.142373 3.586273 30.685988 14.893623
2003-05-05 08:40:58 51°22.74 3°9.46 12.145777 3.584482 30.662541 15.163298
2003-05-05 08:41:58 51°22.72 3°9.45 12.146413 3.58269 30.644883 15.230717
2003-05-05 08:42:58 51°22.7 3°9.44 12.147412 3.58111 30.628586 15.163298
2003-05-05 08:43:58 51°22.69 3°9.44 12.144597 3.581426 30.633514 14.623947
2003-05-05 08:44:58 51°22.69 3°9.45 12.159985 3.579951 30.614372 15.095879
2003-05-05 08:45:58 51°22.68 3°9.46 12.150499 3.577738 30.588875 14.826204
2003-05-05 08:46:58 51°22.67 3°9.48 12.156127 3.57679 30.583714 15.02846
2003-05-05 08:47:58 51°22.67 3°9.49 12.172375 3.576158 30.57451 14.994751
2003-05-05 08:48:58 51°22.67 3°9.49 12.171921 3.57679 30.569629 15.197007
2003-05-05 08:49:58 51°22.69 3°9.49 12.172012 3.577211 30.570429 15.197007
2003-05-05 08:50:58 51°22.71 3°9.49 12.167247 3.577 30.570989 15.466683
2003-05-05 08:51:58 51°22.73 3°9.5 12.160484 3.577738 30.58055 15.298136
2003-05-05 08:52:58 51°22.75 3°9.5 12.162935 3.577633 30.58147 15.534101
2003-05-05 08:53:58 51°22.77 3°9.51 12.158805 3.578265 30.587471 14.590238
2003-05-05 08:54:58 51°22.8 3°9.52 12.159849 3.579424 30.602318 14.286853
2003-05-05 08:55:58 51°22.82 3°9.53 12.193745 3.58111 30.613837 15.230717
2003-05-05 08:56:58 51°22.83 3°9.54 12.160394 3.583533 30.641978 15.06217
2003-05-05 08:57:58 51°22.83 3°9.56 12.15472 3.584798 30.653985 13.848631
2003-05-05 08:58:58 51°22.82 3°9.57 12.158351 3.583849 30.644338 14.286853
2003-05-05 08:59:58 51°22.8 3°9.59 12.155446 3.584481 30.6497 14.253144
2003-05-05 09:00:58 51°22.78 3°9.6 12.153948 3.584376 30.65255 14.017178
2003-05-05 09:01:58 51°22.76 3°9.6 12.164115 3.583639 30.644262 14.590238
2003-05-05 09:02:58 51°22.73 3°9.6 12.162073 3.582796 30.633691 13.646375
2003-05-05 09:03:58 51°22.7 3°9.59 12.177366 3.58132 30.608148 16.444255
2003-05-05 09:04:58 51°22.67 3°9.58 12.19134 3.578791 30.576469 16.275708
2003-05-05 09:05:58 51°22.62 3°9.55 12.198961 3.574998 30.529624 16.376836
2003-05-05 09:06:58 51°22.57 3°9.45 12.198326 3.56973 30.47776 15.02846
2003-05-05 09:07:58 51°22.6 3°9.26 12.178092 3.56815 30.465326 14.48911
2003-05-05 09:08:58 51°22.68 3°8.99 12.169743 3.575104 30.538927 15.736358
2003-05-05 09:09:58 51°22.81 3°8.71 12.166339 3.583638 30.631433 13.882341
2003-05-05 09:10:58 51°22.95 3°8.39 12.154629 3.586167 30.656723 13.781212
2003-05-05 09:11:58 51°23.1 3°8.09 12.125754 3.59702 30.779115 14.758785
2003-05-05 09:12:58 51°23.23 3°7.77 12.125119 3.609243 30.914101 12.533965
2003-05-05 09:13:58 51°23.37 3°7.43 12.11867 3.61251 30.948429 11.017042
2003-05-05 09:14:58 51°23.5 3°7.09 12.125981 3.613564 30.953915 11.590101
2003-05-05 09:15:58 51°23.63 3°6.75 12.118624 3.623679 31.048253 11.724939
2003-05-05 09:16:58 51°23.76 3°6.42 12.087462 3.633901 31.160609 11.320426
2003-05-05 09:17:58 51°23.93 3°6.13 12.105998 3.638326 31.209333 12.567674
2003-05-05 09:18:58 51°24.11 3°5.86 12.080374 3.632531 31.163898 11.859777
2003-05-05 09:19:58 51°24.32 3°5.72 12.107951 3.628 31.114175 12.297999
2003-05-05 09:20:58 51°24.54 3°5.66 12.079828 3.641066 31.233487 13.91605
2003-05-05 09:21:58 51°24.76 3°5.66 12.051921 3.653817 31.375486 14.354272
2003-05-05 09:22:58 51°24.98 3°5.7 12.008673 3.669413 31.541621 14.354272
2003-05-05 09:23:58 51°25.19 3°5.74 11.977823 3.686907 31.754241 25.444665
2003-05-05 09:24:58 51°25.4 3°5.77 11.949508 3.6985 31.886775 18.365691
2003-05-05 09:25:58 51°25.61 3°5.81 11.919496 3.708828 32.014158 18.197144
2003-05-05 09:26:58 51°25.81 3°5.84 11.895076 3.713149 32.075267 19.343264
2003-05-05 09:27:58 51°26.02 3°5.88 11.899678 3.714836 32.108411 19.815195
2003-05-05 09:28:58 51°26.23 3°5.91 11.919223 3.711674 32.071241 17.624084
2003-05-05 09:29:58 51°26.43 3°6 11.962119 3.707564 32.012141 14.050888
2003-05-05 09:30:58 51°26.61 3°6.16 11.977687 3.703559 31.942015 10.309144
2003-05-05 09:31:58 51°26.79 3°6.34 11.967901 3.704085 31.93294 10.106888
2003-05-05 09:32:58 51°26.96 3°6.54 11.968629 3.70398 31.942694 10.309144
2003-05-05 09:33:58 51°27.12 3°6.75 11.95916 3.706299 31.968976 10.578819
2003-05-05 09:34:58 51°27.27 3°7 11.954335 3.710409 32.012461 10.747366
2003-05-05 09:35:58 51°27.41 3°7.26 11.9557 3.713043 32.045177 10.983332
2003-05-05 09:36:58 51°27.55 3°7.52 11.942223 3.70946 32.007405 11.017042
2003-05-05 09:37:58 51°27.68 3°7.79 11.93102 3.711674 32.04013 11.11817
2003-05-05 09:38:58 51°27.81 3°8.06 11.922594 3.711358 32.046554 21.096153
2003-05-05 09:39:58 51°27.93 3°8.33 11.948552 3.656137 31.500159 31.613486
2003-05-05 09:40:58 51°28.06 3°8.6 11.90264 3.685644 31.803051 22.006306
2003-05-05 09:41:58 51°28.11 3°8.83 11.865632 3.706089 32.029053 17.624084
2003-05-05 09:42:58 51°28.14 3°9 11.902777 3.705667 32.033119 19.208426
2003-05-05 09:43:58 51°28.13 3°9.13 11.891385 3.705983 32.01925 18.770204
2003-05-05 09:44:58 51°28.13 3°9.17 11.921592 3.707248 32.028023 18.298272
2003-05-05 09:45:58 51°28.12 3°9.17 11.907925 3.708302 32.032742 18.163435
2003-05-05 09:46:58 51°28.12 3°9.16 11.921774 3.708934 32.035437 16.444255
2003-05-05 09:47:58 51°28.11 3°9.16 11.92232 3.707142 32.0189 17.253281
2003-05-05 09:48:58 51°28.11 3°9.16 11.919496 3.705034 31.991224 18.466819
2003-05-05 09:49:58 51°28.11 3°9.16 11.924006 3.703875 31.987514 19.141007
2003-05-05 09:50:58 51°28.11 3°9.16 11.942269 3.704297 31.978067 18.466819
2003-05-05 09:51:58 51°28.12 3°9.15 11.925463 3.705245 31.981104 17.826341
2003-05-05 09:52:58 51°28.12 3°9.14 11.922412 3.704507 31.986164 18.298272
2003-05-05 09:53:58 51°28.13 3°9.12 11.945775 3.705034 31.98785 18.871332
2003-05-05 09:54:58 51°28.14 3°9.1 11.999711 3.696392 31.852475 18.938751
2003-05-05 09:55:58 51°28.14 3°9.1 12.029414 3.691439 31.784935 21.2647
2003-05-05 09:56:58 51°28.15 3°9.1 12.032961 3.683956 31.701295 23.253554
2003-05-05 09:57:58 51°28.15 3°9.12 12.057785 3.681532 31.665452 23.590648
2003-05-05 09:58:58 51°28.15 3°9.11 12.094595 3.67837 31.607981 23.894033
2003-05-05 09:59:58 51°28.15 3°9.1 12.086917 3.664039 31.463164 25.276118
2003-05-05 10:00:58 51°28.16 3°9.08 12.095095 3.656873 31.392133 25.646922
2003-05-05 10:01:58 51°28.17 3°9.05 12.092823 3.655608 31.377433 25.242409
2003-05-05 10:02:58 51°28.17 3°9.04 12.107678 3.656241 31.390712 25.950306
2003-05-05 10:03:58 51°28.17 3°9.04 12.135381 3.638853 31.201263 31.276392
2003-05-05 10:04:58 51°28.16 3°9.05 12.16702 3.620834 31.001673 31.984289
2003-05-05 10:05:58 51°28.13 3°9.05 12.167156 3.61841 30.961756 31.95058
2003-05-05 10:06:58 51°28.1 3°9.06 12.16888 3.620096 30.978433 31.815742
2003-05-05 10:07:58 51°28.06 3°9.05 12.169607 3.620623 30.982794 32.422512
2003-05-05 10:08:58 51°28.02 3°9.03 12.15826 3.621044 30.984856 32.591059
2003-05-05 10:09:58 51°27.98 3°9.01 12.143281 3.625892 31.047193 31.883161
2003-05-05 10:10:58 51°27.94 3°8.97 12.14042 3.630001 31.092809 30.635913
2003-05-05 10:11:58 51°27.91 3°8.92 12.137515 3.636113 31.150335 30.534785
2003-05-05 10:12:58 51°27.88 3°8.87 12.111448 3.646967 31.26024 27.669486
2003-05-05 10:13:58 51°27.86 3°8.82 12.05083 3.661615 31.443328 25.343537
2003-05-05 10:14:58 51°27.88 3°8.75 12.076784 3.665936 31.50839 25.242409
2003-05-05 10:15:58 51°27.98 3°8.55 12.176413 3.639801 31.207683 28.815606
2003-05-05 10:16:58 51°28.06 3°8.21 12.058512 3.608506 30.888951 37.512631
2003-05-05 10:17:58 51°28.13 3°7.84 12.045965 3.630951 31.167146 38.793589
2003-05-05 10:18:58 51°28.19 3°7.46 12.032552 3.638643 31.249722 34.310238
2003-05-05 10:19:58 51°28.24 3°7.08 12.025957 3.639065 31.262285 32.624768
2003-05-05 10:20:58 51°28.3 3°6.7 12.018089 3.639486 31.274854 31.849452
2003-05-05 10:21:58 51°28.36 3°6.32 11.931339 3.635798 31.246203 34.074272
2003-05-05 10:22:58 51°28.42 3°5.94 12.06074 3.628739 31.199121 36.164255
2003-05-05 10:23:58 51°28.49 3°5.57 11.866908 3.614408 31.088412 50.794136
2003-05-05 10:24:58 51°28.55 3°5.2 11.803373 3.603873 31.084653 56.15393
2003-05-05 10:25:58 51°28.61 3°4.82 11.754437 3.605348 31.131693 49.176084
2003-05-05 10:26:58 51°28.68 3°4.44 11.786715 3.603347 31.145446 49.9514
2003-05-05 10:27:58 51°28.74 3°4.1 11.78247 3.60714 31.181876 50.490751
2003-05-05 10:28:58 51°28.75 3°3.9 11.806521 3.609985 31.189377 48.468187
2003-05-05 10:29:58 51°28.71 3°3.77 11.86896 3.613988 31.198094 45.366922
2003-05-05 10:30:58 51°28.65 3°3.73 11.925372 3.624209 31.240655 41.490341
2003-05-05 10:31:58 51°28.63 3°3.72 11.912071 3.630847 31.294345 41.625178
2003-05-05 10:32:58 51°28.62 3°3.72 11.904098 3.629793 31.280951 41.625178
2003-05-05 10:33:58 51°28.62 3°3.71 11.871831 3.625157 31.24974 42.838717
2003-05-05 10:34:58 51°28.62 3°3.7 11.834031 3.619889 31.229601 46.513042
2003-05-05 10:35:58 51°28.63 3°3.67 11.824224 3.616728 31.215131 47.72658
2003-05-05 10:36:58 51°28.64 3°3.64 11.809624 3.615253 31.210222 48.535606
2003-05-05 10:37:58 51°28.65 3°3.61 11.797258 3.613356 31.20391 47.760289
2003-05-05 10:38:58 51°28.66 3°3.56 11.763022 3.619257 31.28437 47.119811
2003-05-05 10:39:58 51°28.67 3°3.52 11.799038 3.614832 31.245174 48.131093
2003-05-05 10:40:58 51°28.67 3°3.47 11.823722 3.613778 31.211256 47.625452
2003-05-05 10:41:58 51°28.68 3°3.41 11.823859 3.614094 31.202404 47.827708
2003-05-05 10:42:58 51°28.69 3°3.36 11.848944 3.615885 31.205067 44.692734
2003-05-05 10:43:58 51°28.71 3°3.31 11.867136 3.618624 31.220779 43.681452
2003-05-05 10:44:58 51°28.72 3°3.27 11.84069 3.621048 31.235433 43.614033
2003-05-05 10:45:58 51°28.74 3°3.26 11.844156 3.622313 31.266712 43.984836
2003-05-05 10:46:58 51°28.75 3°3.26 11.831659 3.618098 31.221666 45.535469
2003-05-05 10:47:58 51°28.75 3°3.26 11.839549 3.614831 31.197602 46.513042
2003-05-05 10:48:58 51°28.75 3°3.25 11.818521 3.613883 31.190486 46.277076
2003-05-05 10:49:58 51°28.74 3°3.25 11.816468 3.61167 31.180476 46.175947
2003-05-05 10:50:58 51°28.74 3°3.24 11.816057 3.610617 31.174985 45.602888
2003-05-05 10:51:58 51°28.7 3°3.32 11.807252 3.610511 31.168039 45.602888
2003-05-05 10:52:58 51°28.69 3°3.45 11.845296 3.610616 31.159822 40.580187
2003-05-05 10:53:58 51°28.68 3°3.58 11.819798 3.610616 31.151918 42.09711
2003-05-05 10:54:58 51°28.66 3°3.69 11.848032 3.606718 31.130341 40.782443
2003-05-05 10:55:58 51°28.64 3°3.7 11.761424 3.605243 31.1083 38.557623
2003-05-05 10:56:58 51°28.63 3°3.7 11.76115 3.599659 31.110034 41.827435
2003-05-05 10:57:58 51°28.62 3°3.7 11.781146 3.597446 31.082863 42.029691
2003-05-05 10:58:58 51°28.6 3°3.69 11.764254 3.597973 31.078045 42.164529
2003-05-05 10:59:58 51°28.58 3°3.68 11.750738 3.596182 31.074676 43.647742
2003-05-05 11:00:58 51°28.56 3°3.66 11.737767 3.593864 31.067564 44.962409
2003-05-05 11:01:58 51°28.53 3°3.64 11.733427 3.592599 31.063324 45.333212
2003-05-05 11:02:58 51°28.5 3°3.61 11.738817 3.592073 31.058263 45.434341
2003-05-05 11:03:58 51°28.48 3°3.57 11.740051 3.592494 31.06297 45.299503
2003-05-05 11:04:58 51°28.45 3°3.52 11.746354 3.593126 31.061139 45.164665
2003-05-05 11:05:58 51°28.44 3°3.46 11.742654 3.593442 31.063516 45.265794
2003-05-05 11:06:58 51°28.43 3°3.4 11.716889 3.593758 31.065235 44.35564
2003-05-05 11:07:58 51°28.43 3°3.34 11.719904 3.593021 31.089127 45.198375
2003-05-05 11:08:58 51°28.44 3°3.3 11.693856 3.593759 31.084343 43.816289
2003-05-05 11:09:58 51°28.48 3°3.23 11.762885 3.594391 31.093056 41.894853
2003-05-05 11:10:58 51°28.45 3°3.03 11.839093 3.599132 31.112887 43.445486
2003-05-05 11:11:58 51°28.3 3°2.77 11.820392 3.60893 31.120626 38.1194
2003-05-05 11:12:58 51°28.13 3°2.47 11.782105 3.608825 31.163076 45.198375
2003-05-05 11:13:58 51°27.97 3°2.17 11.82249 3.615886 31.249337 47.861418
2003-05-05 11:14:58 51°27.8 3°1.87 11.97227 3.627686 31.300397 43.816289
2003-05-05 11:15:58 51°27.63 3°1.56 11.813274 3.65287 31.483472 36.400221
2003-05-05 11:16:58 51°27.46 3°1.26 11.882908 3.654979 31.576255 40.141965
2003-05-05 11:17:58 51°27.29 3°0.95 11.853458 3.665832 31.619024 33.669759
2003-05-05 11:18:58 51°27.12 3°0.64 11.866315 3.691862 31.919964 23.860324
2003-05-05 11:19:58 51°26.95 3°0.33 11.752428 3.705351 32.031432 23.995161
2003-05-05 11:20:58 51°26.77 3°0.02 11.753295 3.699557 32.130515 31.478648
2003-05-05 11:21:58 51°26.6 2°59.72 11.756172 3.710516 32.162646 24.399674
2003-05-05 11:22:58 51°26.42 2°59.41 11.69765 3.721266 32.283428 22.579366
2003-05-05 11:23:58 51°26.24 2°59.11 11.538403 3.72759 32.384988 27.602067
2003-05-05 11:24:58 51°26.07 2°58.81 11.500091 3.722745 32.519099 47.423195
2003-05-05 11:25:58 51°25.89 2°58.51 11.458957 3.722007 32.513318 46.411913
2003-05-05 11:26:58 51°25.72 2°58.21 11.46093 3.720954 32.546895 45.333212
2003-05-05 11:27:58 51°25.55 2°57.91 11.481568 3.730228 32.62252 37.276665
2003-05-05 11:28:58 51°25.38 2°57.61 11.533593 3.73908 32.667469 27.43352
2003-05-05 11:29:58 51°25.21 2°57.31 11.567215 3.743717 32.687429 25.17499
2003-05-05 11:30:58 51°25.04 2°57.01 11.600409 3.747511 32.690814 21.433247
2003-05-05 11:31:58 51°24.87 2°56.71 11.606496 3.750251 32.703479 21.096153
2003-05-05 11:32:58 51°24.7 2°56.41 11.659566 3.75162 32.699359 18.871332
2003-05-05 11:33:58 51°24.54 2°56.12 11.750464 3.754465 32.634552 14.691366
2003-05-05 11:34:58 51°24.37 2°55.82 11.762885 3.758786 32.656262 14.522819
2003-05-05 11:35:58 51°24.2 2°55.52 11.786395 3.759312 32.643355 13.747503
2003-05-05 11:36:58 51°24.03 2°55.22 11.72758 3.760261 32.653216 14.185725
2003-05-05 11:37:58 51°23.86 2°54.92 11.700026 3.760367 32.69097 14.893623
2003-05-05 11:38:58 51°23.7 2°54.62 11.691479 3.761632 32.721966 15.60152
2003-05-05 11:39:58 51°23.53 2°54.32 11.689925 3.763529 32.747294 17.556665
2003-05-05 11:40:58 51°23.36 2°54.02 11.737264 3.763845 32.754533 17.758922
2003-05-05 11:41:58 51°23.19 2°53.72 11.778727 3.76511 32.737569 18.669076
2003-05-05 11:42:58 51°23.03 2°53.42 11.792101 3.767955 32.706799 16.17458
2003-05-05 11:43:58 51°22.86 2°53.12 11.829196 3.76827 32.675936 11.11817
2003-05-05 11:44:58 51°22.7 2°52.82 11.761378 3.771959 32.728864 13.140734
2003-05-05 11:45:58 51°22.54 2°52.52 11.974865 3.775649 32.810359 13.174443
2003-05-05 11:46:58 51°22.38 2°52.22 11.995343 3.762998 32.47805 10.241725
2003-05-05 11:47:58 51°22.22 2°51.92 11.939445 3.76342 32.487572 10.275435
2003-05-05 11:48:58 51°22.07 2°51.62 11.979188 3.771431 32.607123 9.601247
2003-05-05 11:49:58 51°21.91 2°51.32 11.970859 3.77902 32.700863 8.82593
2003-05-05 11:50:58 51°21.76 2°51.01 11.984832 3.779125 32.70533 9.533828
2003-05-05 11:51:58 51°21.6 2°50.71 11.929471 3.777122 32.655712 8.421418
2003-05-05 11:52:58 51°21.45 2°50.42 11.847439 3.802208 32.92715 7.376426
2003-05-05 11:53:58 51°21.29 2°50.12 11.833894 3.814857 33.099481 7.410136
2003-05-05 11:54:58 51°21.13 2°49.82 11.746217 3.820022 33.200659 7.14046
2003-05-05 11:55:58 51°20.98 2°49.52 11.747632 3.82445 33.301381 7.376426
2003-05-05 11:56:58 51°20.82 2°49.23 11.790686 3.831828 33.311458 5.522409
2003-05-05 11:57:58 51°20.66 2°48.93 11.78708 3.837836 33.386634 5.724665
2003-05-05 11:58:58 51°20.5 2°48.64 11.697421 3.839522 33.378222 5.320153
2003-05-05 11:59:58 51°20.35 2°48.34 11.466571 3.836995 33.54132 11.65752
2003-05-05 12:00:58 51°20.19 2°48.05 11.370597 3.822346 33.576181 17.152153
2003-05-05 12:01:58 51°20.07 2°47.84 11.339677 3.817709 33.551657 18.129725
2003-05-05 12:02:58 51°20 2°47.73 11.339034 3.819606 33.59186 17.084734
2003-05-05 12:03:58 51°19.94 2°47.68 11.328785 3.818342 33.591728 14.320563
2003-05-05 12:04:58 51°19.88 2°47.68 11.330348 3.817393 33.593977 17.522956
2003-05-05 12:05:58 51°19.86 2°47.75 11.324327 3.817498 33.589957 18.163435
2003-05-05 12:06:58 51°19.88 2°47.8 11.358561 3.818025 33.588629 21.23099
2003-05-05 12:07:58 51°19.9 2°47.81 11.370643 3.821292 33.586751 16.74764
2003-05-05 12:08:58 51°19.92 2°47.8 11.368576 3.821714 33.588718 18.3994
2003-05-05 12:09:58 51°19.93 2°47.78 11.366968 3.821819 33.58975 17.388118
2003-05-05 12:10:58 51°19.94 2°47.75 11.340734 3.821082 33.589731 17.758922
2003-05-05 12:11:58 51°19.94 2°47.72 11.372158 3.819185 33.58196 17.051024
2003-05-05 12:12:58 51°19.94 2°47.7 11.377946 3.821292 33.582427 15.736358
2003-05-05 12:13:58 51°19.94 2°47.67 11.389472 3.822662 33.582877 14.219435
2003-05-05 12:14:58 51°19.94 2°47.64 11.378864 3.822346 33.586264 14.084597
2003-05-05 12:15:58 51°19.93 2°47.62 11.362145 3.821187 33.583557 14.185725
2003-05-05 12:16:58 51°19.92 2°47.6 11.337931 3.820028 33.592385 16.140871
2003-05-05 12:17:58 51°19.91 2°47.58 11.324557 3.818658 33.594106 17.522956
2003-05-05 12:18:58 51°19.89 2°47.57 11.312972 3.816655 33.595406 20.860187
2003-05-05 12:19:58 51°19.88 2°47.57 11.293293 3.816339 33.605308 19.714067
2003-05-05 12:20:58 51°19.86 2°47.58 11.344916 3.816655 33.592518 15.197007
2003-05-05 12:21:58 51°19.84 2°47.59 11.334162 3.818763 33.589367 16.241999
2003-05-05 12:22:58 51°19.82 2°47.61 11.348683 3.818341 33.590285 15.331845
2003-05-05 12:23:58 51°19.81 2°47.64 11.287683 3.818131 33.595436 19.612939
2003-05-05 12:24:58 51°19.8 2°47.67 11.317202 3.814442 33.603316 24.63564
2003-05-05 12:25:58 51°19.8 2°47.7 11.374317 3.81929 33.58155 15.534101
2003-05-05 12:26:58 51°19.81 2°47.73 11.387819 3.821082 33.584686 15.500392
2003-05-05 12:27:58 51°19.82 2°47.74 11.39062 3.823084 33.587724 14.758785
2003-05-05 12:28:58 51°19.83 2°47.75 11.419129 3.823295 33.583306 13.578956
2003-05-05 12:29:58 51°19.84 2°47.74 11.403384 3.824665 33.582317 12.399127
2003-05-05 12:30:58 51°19.86 2°47.73 11.4004 3.823295 33.588347 13.039606
2003-05-05 12:31:58 51°19.86 2°47.72 11.399023 3.822662 33.580716 11.994614
2003-05-05 12:32:58 51°19.87 2°47.7 11.379737 3.82203 33.58677 12.904768
2003-05-05 12:33:58 51°19.88 2°47.69 11.382768 3.821609 33.584803 11.151879
2003-05-05 12:34:58 51°19.89 2°47.67 11.374822 3.821503 33.580889 11.387845
2003-05-05 12:35:58 51°19.9 2°47.65 11.380655 3.820871 33.585504 12.567674
2003-05-05 12:36:58 51°19.91 2°47.64 11.374685 3.821292 33.581707 10.949623
2003-05-05 12:37:58 51°19.93 2°47.63 11.390988 3.821082 33.583245 10.612529
2003-05-05 12:38:58 51°19.94 2°47.62 11.369816 3.822241 33.58091 9.938341
2003-05-05 12:39:58 51°19.96 2°47.61 11.356035 3.820765 33.583751 10.241725
2003-05-05 12:40:58 51°19.99 2°47.61 11.368989 3.819606 33.588975 10.073178
2003-05-05 12:41:58 51°20.02 2°47.61 11.372985 3.820976 33.57717 8.320289
2003-05-05 12:42:58 51°20.1 2°47.49 11.335541 3.819922 33.579096 7.005623
2003-05-05 12:43:58 51°20.04 2°47.2 11.241677 3.817499 33.608733 4.814512
2003-05-05 12:44:58 51°19.9 2°46.93 11.186335 3.814126 33.632782 5.4887
2003-05-05 12:45:58 51°19.75 2°46.66 11.178504 3.812862 33.668954 6.533691
2003-05-05 12:46:58 51°19.61 2°46.39 11.151642 3.81339 33.689405 6.466272
2003-05-05 12:47:58 51°19.48 2°46.12 11.150121 3.813179 33.704793 7.275298
2003-05-05 12:48:58 51°19.34 2°45.85 11.154729 3.814128 33.715593 6.837076
2003-05-05 12:49:58 51°19.2 2°45.58 11.15989 3.814655 33.714957 6.230306
2003-05-05 12:50:58 51°19.06 2°45.32 11.149752 3.815814 33.722734 5.45499
2003-05-05 12:51:58 51°18.93 2°45.06 11.150259 3.816341 33.73448 4.91564
2003-05-05 12:52:58 51°18.79 2°44.8 11.149015 3.817395 33.748507 4.780802
2003-05-05 12:53:58 51°18.65 2°44.53 11.142332 3.818449 33.763267 4.91564
2003-05-05 12:54:58 51°18.52 2°44.27 11.136478 3.819503 33.778762 4.983059
2003-05-05 12:55:58 51°18.39 2°44 11.122048 3.82003 33.786876 4.477418
2003-05-05 12:56:58 51°18.26 2°43.72 11.113287 3.820347 33.805336 4.477418
2003-05-05 12:57:58 51°18.14 2°43.44 11.119328 3.821506 33.818231 4.005486
2003-05-05 12:58:58 51°18.01 2°43.16 11.12357 3.822244 33.822582 3.567264
2003-05-05 12:59:58 51°17.89 2°42.88 11.119927 3.824985 33.845948 3.162751
2003-05-05 13:00:58 51°17.76 2°42.6 11.122509 3.825301 33.85419 2.690819
2003-05-05 13:01:58 51°17.65 2°42.32 11.122786 3.825828 33.86012 2.522272
2003-05-05 13:02:58 51°17.53 2°42.03 11.119743 3.825512 33.856269 2.488563
2003-05-05 13:03:58 51°17.41 2°41.74 11.119558 3.827304 33.876873 2.353725
2003-05-05 13:04:58 51°17.32 2°41.55 11.124722 3.828674 33.885993 2.151469
2003-05-05 13:05:58 51°17.3 2°41.43 11.121264 3.829412 33.891073 2.050341
2003-05-05 13:06:58 51°17.28 2°41.32 11.124861 3.829939 33.894805 1.881794
2003-05-05 13:07:58 51°17.28 2°41.31 11.062914 3.830466 33.911001 2.050341
2003-05-05 13:09:04 51°17.28 2°41.33 10.994349 3.827832 33.954045 2.555982
2003-05-05 13:10:00 51°17.29 2°41.34 11.004188 3.825619 33.98005 2.724529
2003-05-05 13:10:58 51°17.3 2°41.36 10.956088 3.824881 33.992675 2.859366
2003-05-05 13:11:58 51°17.31 2°41.37 10.99652 3.824881 33.99046 2.555982
2003-05-05 13:12:58 51°17.33 2°41.38 11.070251 3.825513 33.946576 2.387435
2003-05-05 13:13:58 51°17.35 2°41.38 11.102865 3.827515 33.911958 2.218888
2003-05-05 13:14:58 51°17.37 2°41.38 11.108814 3.82899 33.903775 2.08405
2003-05-05 13:15:58 51°17.38 2°41.37 11.103695 3.831204 33.924885 2.016631
2003-05-05 13:16:58 51°17.39 2°41.36 11.096224 3.831309 33.931798 1.982922
2003-05-05 13:17:58 51°17.39 2°41.36 11.104295 3.830888 33.929839 2.050341
2003-05-05 13:18:58 51°17.39 2°41.36 11.115455 3.831625 33.929046 1.982922
2003-05-05 13:19:58 51°17.38 2°41.37 11.098899 3.833417 33.935719 1.949212
2003-05-05 13:20:58 51°17.36 2°41.4 11.097884 3.831942 33.946856 2.08405
2003-05-05 13:21:58 51°17.35 2°41.43 11.107108 3.831731 33.936694 1.915503
2003-05-05 13:22:58 51°17.35 2°41.46 11.111351 3.831836 33.931127 1.915503
2003-05-05 13:23:58 51°17.34 2°41.5 11.114855 3.832363 33.933392 2.016631
2003-05-05 13:24:58 51°17.34 2°41.53 11.103511 3.831625 33.924643 2.050341
2003-05-05 13:25:58 51°17.34 2°41.56 11.107892 3.83152 33.926538 2.151469
2003-05-05 13:26:58 51°17.34 2°41.59 11.104572 3.830993 33.922071 2.151469
2003-05-05 13:27:58 51°17.34 2°41.62 11.119282 3.831309 33.923724 2.151469
2003-05-05 13:28:58 51°17.34 2°41.65 11.12357 3.832363 33.922385 2.117759
2003-05-05 13:29:58 51°17.35 2°41.68 11.122002 3.831836 33.918653 2.117759
2003-05-05 13:30:58 51°17.35 2°41.71 11.131407 3.831942 33.919692 2.185178
2003-05-05 13:31:58 51°17.33 2°41.71 11.125967 3.831625 33.90924 2.117759
2003-05-05 13:32:58 51°17.32 2°41.7 11.127166 3.831625 33.912906 1.848084
2003-05-05 13:33:58 51°17.32 2°41.66 11.122279 3.832047 33.920732 1.814375
2003-05-05 13:34:58 51°17.34 2°41.61 11.118959 3.830782 33.908254 1.848084
2003-05-05 13:35:58 51°17.38 2°41.58 11.108307 3.831204 33.920482 1.814375
2003-05-05 13:36:58 51°17.42 2°41.56 11.111858 3.832574 33.937674 1.679537
2003-05-05 13:37:58 51°17.45 2°41.54 11.100421 3.833734 33.946915 1.612118
2003-05-05 13:38:58 51°17.48 2°41.52 11.09853 3.833312 33.951567 1.612118
2003-05-05 13:39:58 51°17.51 2°41.5 11.095578 3.833944 33.958545 1.612118
2003-05-05 13:40:58 51°17.54 2°41.48 11.079986 3.834893 33.973056 1.5447
2003-05-05 13:41:58 51°17.57 2°41.47 10.914521 3.834261 34.014667 1.477281
2003-05-05 13:42:58 51°17.59 2°41.4 10.859366 3.829836 34.097321 1.848084
2003-05-05 13:43:58 51°17.51 2°41.38 10.853162 3.829731 34.134918 3.027913
2003-05-05 13:44:58 51°17.36 2°41.34 10.86941 3.829837 34.135222 2.421144
2003-05-05 13:45:58 51°17.17 2°41.27 10.912162 3.831101 34.129934 2.218888
2003-05-05 13:46:58 51°16.96 2°41.18 11.072835 3.832365 34.058671 1.814375
2003-05-05 13:47:58 51°16.76 2°41.1 11.122786 3.835104 33.973667 1.780665
2003-05-05 13:48:58 51°16.56 2°41.02 11.184308 3.835736 33.94612 1.881794
2003-05-05 13:49:58 51°16.35 2°40.93 11.149383 3.836263 33.94178 1.915503
2003-05-05 13:50:58 51°16.15 2°40.85 11.145881 3.834049 33.914823 1.949212
2003-05-05 13:51:58 51°15.94 2°40.76 11.137077 3.837212 33.950402 2.08405
2003-05-05 13:52:58 51°15.74 2°40.66 11.128825 3.834155 33.923192 1.982922
2003-05-05 13:53:58 51°15.53 2°40.6 11.110152 3.840796 34.004118 1.780665
2003-05-05 13:54:58 51°15.31 2°40.62 11.060745 3.837423 34.00098 2.252597
2003-05-05 13:55:58 51°15.1 2°40.7 10.992409 3.838899 34.069393 4.207742
2003-05-05 13:56:58 51°14.88 2°40.77 10.988343 3.835949 34.076408 6.904494
2003-05-05 13:57:58 51°14.66 2°40.85 10.988251 3.835632 34.073277 11.219298
2003-05-05 13:58:58 51°14.44 2°40.93 11.008853 3.836476 34.078667 13.073315
2003-05-05 13:59:58 51°14.29 2°41.02 11.033973 3.839743 34.093261 11.69123
2003-05-05 14:00:58 51°14.18 2°41.04 11.057514 3.844381 34.109568 6.129178
2003-05-05 14:01:58 51°14.17 2°41.05 11.078048 3.847226 34.116274 4.544836
2003-05-05 14:02:58 51°14.18 2°41.07 11.08077 3.842588 34.062316 5.893212
2003-05-05 14:03:58 51°14.19 2°41.09 11.083907 3.843537 34.068739 5.589828
2003-05-05 14:04:58 51°14.21 2°41.12 11.133297 3.842166 34.04046 4.207742
2003-05-05 14:05:58 51°14.23 2°41.15 11.122509 3.847226 34.062422 4.409999
2003-05-05 14:06:58 51°14.25 2°41.16 11.084738 3.850704 34.115196 7.848358
2003-05-05 14:07:58 51°14.27 2°41.16 11.070851 3.844802 34.082713 6.533691
2003-05-05 14:08:58 51°14.28 2°41.15 11.076018 3.844907 34.091136 6.533691
2003-05-05 14:09:58 51°14.29 2°41.14 11.076249 3.844907 34.088183 5.589828
2003-05-05 14:10:58 51°14.29 2°41.13 11.072835 3.846594 34.106328 7.646101
2003-05-05 14:11:58 51°14.27 2°41.13 11.069236 3.845013 34.092916 7.848358
2003-05-05 14:12:58 51°14.25 2°41.13 11.062683 3.847016 34.116407 7.073042
2003-05-05 14:13:58 51°14.23 2°41.14 11.066421 3.844907 34.097782 7.71352
2003-05-05 14:14:58 51°14.22 2°41.13 11.072604 3.844169 34.087535 8.82593
2003-05-05 14:15:58 51°14.2 2°41.12 11.074265 3.839321 34.033715 8.960768
2003-05-05 14:16:58 51°14.19 2°41.12 11.078971 3.843748 34.075248 10.612529
2003-05-05 14:17:58 51°14.17 2°41.11 11.085384 3.849018 34.123641 12.23058
2003-05-05 14:18:58 51°14.15 2°41.11 11.08912 3.851126 34.136347 14.050888
2003-05-05 14:19:58 51°14.12 2°41.12 11.091565 3.845118 34.076246 16.309418
2003-05-05 14:20:58 51°14.1 2°41.13 11.098945 3.852391 34.143673 13.477828
2003-05-05 14:21:58 51°14.09 2°41.15 11.101712 3.853129 34.14579 13.781212
2003-05-05 14:22:58 51°14.07 2°41.17 11.107477 3.852918 34.140753 14.421691
2003-05-05 14:23:58 51°14.07 2°41.2 11.678222 3.853445 34.140788 13.949759
2003-05-05 14:24:58 51°14.06 2°41.23 11.120573 3.854499 34.146029 11.994614
2003-05-05 14:25:58 51°14.05 2°41.26 11.127258 3.854604 34.140424 12.533965
2003-05-05 14:26:58 51°14.04 2°41.3 11.157678 3.855026 34.135729 12.871059
2003-05-05 14:27:58 51°14.03 2°41.36 11.185598 3.850809 34.067598 12.567674
2003-05-05 14:28:58 51°14.01 2°41.42 11.217188 3.860296 34.127271 12.635093
2003-05-05 14:29:58 51°13.99 2°41.46 11.258058 3.862087 34.119905 17.219571
2003-05-05 14:30:58 51°13.98 2°41.49 11.281796 3.865565 34.118866 17.624084
2003-05-05 14:31:58 51°13.97 2°41.5 11.313294 3.867989 34.114812 10.376563
2003-05-05 14:32:58 51°13.97 2°41.5 11.323361 3.869887 34.110723 9.365281
2003-05-05 14:33:58 51°14.02 2°41.47 11.322258 3.871257 34.114657 10.983332
2003-05-05 14:34:58 51°14.12 2°41.54 11.236384 3.868938 34.120471 18.97246
2003-05-05 14:35:58 51°14.24 2°41.76 11.147816 3.863774 34.13431 15.06217
2003-05-05 14:36:58 51°14.31 2°42.08 11.170349 3.856923 34.138224 16.916187
2003-05-05 14:37:58 51°14.38 2°42.46 11.277288 3.853549 34.051238 25.714341
2003-05-05 14:38:58 51°14.46 2°42.85 11.325016 3.867568 34.106263 21.163571
2003-05-05 14:39:58 51°14.53 2°43.24 11.363017 3.869886 34.093867 16.17458
2003-05-05 14:40:58 51°14.6 2°43.63 11.442442 3.875262 34.109307 11.556392
2003-05-05 14:41:58 51°14.66 2°44.03 11.43588 3.878635 34.110209 6.702238
2003-05-05 14:42:58 51°14.73 2°44.42 11.446296 3.880848 34.10633 4.88193
2003-05-05 14:43:58 51°14.77 2°44.82 11.439413 3.878424 34.081113 5.893212
2003-05-05 14:44:58 51°14.82 2°45.22 11.437486 3.875472 34.057302 6.837076
2003-05-05 14:45:58 51°14.87 2°45.62 11.440423 3.874418 34.046244 5.522409
2003-05-05 14:46:58 51°14.92 2°46.02 11.434871 3.875788 34.058941 6.466272
2003-05-05 14:47:58 51°14.96 2°46.41 11.426886 3.876842 34.075108 7.275298
2003-05-05 14:48:58 51°15.01 2°46.8 11.4284 3.876315 34.075783 8.28658
2003-05-05 14:49:58 51°15.05 2°47.18 11.433632 3.874629 34.054874 10.443982
2003-05-05 14:50:58 51°15.09 2°47.57 11.433632 3.870728 34.014471 15.837486
2003-05-05 14:51:58 51°15.14 2°47.96 11.449874 3.868304 33.987807 12.23058
2003-05-05 14:52:58 51°15.18 2°48.36 11.439689 3.869252 33.983998 10.612529
2003-05-05 14:53:58 51°15.23 2°48.75 11.457627 3.865352 33.953806 21.837759
2003-05-05 14:54:58 51°15.27 2°49.14 11.492939 3.870517 33.981834 9.466409
2003-05-05 14:55:58 51°15.32 2°49.54 11.549261 3.875471 33.996142 4.91564
2003-05-05 14:56:58 51°15.37 2°49.93 11.615878 3.880741 33.988128 4.713383
2003-05-05 14:57:58 51°15.41 2°50.33 11.656273 3.884957 33.980016 5.320153
2003-05-05 14:58:58 51°15.43 2°50.72 11.750966 3.884324 33.931214 6.02805
2003-05-05 14:59:58 51°15.46 2°51.12 11.814369 3.885271 33.851198 8.016905
2003-05-05 15:00:58 51°15.41 2°51.5 11.851497 3.888433 33.83744 8.28658
2003-05-05 15:01:58 51°15.35 2°51.88 11.87876 3.887695 33.797367 13.814922
2003-05-05 15:02:58 51°15.25 2°52.22 11.934345 3.890541 33.80208 24.231127
2003-05-05 15:03:58 51°15.13 2°52.56 11.97227 3.892648 33.764715 28.343674
2003-05-05 15:04:58 51°15.02 2°52.89 11.975684 3.897919 33.799298 9.028187
2003-05-05 15:05:58 51°14.92 2°53.22 11.967172 3.896337 33.774755 10.949623
2003-05-05 15:06:58 51°14.85 2°53.54 11.965807 3.900554 33.834051 8.691093
2003-05-05 15:07:58 51°14.77 2°53.86 11.951375 3.898867 33.797784 7.679811
2003-05-05 15:08:58 51°14.69 2°54.18 11.931885 3.89676 33.815176 9.163024
2003-05-05 15:09:58 51°14.6 2°54.5 11.996571 3.892437 33.762676 10.073178
2003-05-05 15:10:58 51°14.49 2°54.8 12.037463 3.89465 33.728604 11.08446
2003-05-05 15:11:58 51°14.37 2°55.07 12.232837 3.891909 33.641245 34.883298
2003-05-05 15:12:58 51°14.26 2°55.27 12.562617 3.784495 32.340464 26.89417